createdAt,value
2017-05-22T00:00:11.931Z,1019.7
2017-05-22T00:01:11.955Z,1019.7
2017-05-22T00:02:11.975Z,1019.7
2017-05-22T00:03:12.002Z,1019.69
2017-05-22T00:04:12.026Z,1019.69
2017-05-22T00:05:12.046Z,1019.66
2017-05-22T00:07:12.096Z,1019.71
2017-05-22T00:08:12.119Z,1019.66
2017-05-22T00:09:12.139Z,1019.67
2017-05-22T00:10:12.163Z,1019.65
2017-05-22T00:11:12.190Z,1019.67
2017-05-22T00:12:12.209Z,1019.69
2017-05-22T00:13:12.236Z,1019.65
2017-05-22T00:14:12.256Z,1019.66
2017-05-22T00:15:12.278Z,1019.63
2017-05-22T00:16:12.302Z,1019.68
2017-05-22T00:17:12.326Z,1019.7
2017-05-22T00:18:12.350Z,1019.64
2017-05-22T00:19:12.375Z,1019.66
2017-05-22T00:20:12.399Z,1019.68
2017-05-22T00:21:12.422Z,1019.7
2017-05-22T00:22:12.443Z,1019.66
2017-05-22T00:23:12.468Z,1019.62
2017-05-22T00:24:12.492Z,1019.64
2017-05-22T00:25:12.512Z,1019.61
2017-05-22T00:26:12.542Z,1019.66
2017-05-22T00:27:12.559Z,1019.61
2017-05-22T00:28:12.582Z,1019.67
2017-05-22T00:29:12.605Z,1019.65
2017-05-22T00:30:12.627Z,1019.63
2017-05-22T00:31:12.653Z,1019.64
2017-05-22T00:32:12.677Z,1019.65
2017-05-22T00:33:12.698Z,1019.65
2017-05-22T00:34:12.724Z,1019.62
2017-05-22T00:35:12.747Z,1019.65
2017-05-22T00:36:12.767Z,1019.62
2017-05-22T00:37:12.792Z,1019.64
2017-05-22T00:39:12.840Z,1019.65
2017-05-22T00:40:12.863Z,1019.63
2017-05-22T00:41:12.885Z,1019.63
2017-05-22T00:42:12.908Z,1019.62
2017-05-22T00:43:12.928Z,1019.61
2017-05-22T00:44:12.953Z,1019.58
2017-05-22T00:45:12.975Z,1019.62
2017-05-22T00:46:12.998Z,1019.57
2017-05-22T00:47:13.025Z,1019.58
2017-05-22T00:48:13.047Z,1019.56
2017-05-22T00:49:13.071Z,1019.57
2017-05-22T00:50:13.094Z,1019.58
2017-05-22T00:51:13.114Z,1019.52
2017-05-22T00:52:13.137Z,1019.6
2017-05-22T00:53:13.164Z,1019.6
2017-05-22T00:55:13.206Z,1019.59
2017-05-22T00:56:13.232Z,1019.55
2017-05-22T00:57:13.255Z,1019.56
2017-05-22T00:58:13.275Z,1019.55
2017-05-22T00:59:13.301Z,1019.54
2017-05-22T01:00:13.324Z,1019.54
2017-05-22T01:01:13.344Z,1019.55
2017-05-22T01:02:13.372Z,1019.56
2017-05-22T01:03:13.390Z,1019.58
2017-05-22T01:04:13.416Z,1019.55
2017-05-22T01:05:13.439Z,1019.58
2017-05-22T01:06:13.461Z,1019.56
2017-05-22T01:07:13.486Z,1019.56
2017-05-22T01:08:13.506Z,1019.55
2017-05-22T01:09:13.530Z,1019.56
2017-05-22T01:11:13.578Z,1019.59
2017-05-22T01:12:13.598Z,1019.54
2017-05-22T01:13:13.625Z,1019.51
2017-05-22T01:14:13.644Z,1019.53
2017-05-22T01:15:13.670Z,1019.53
2017-05-22T01:16:13.694Z,1019.52
2017-05-22T01:17:13.714Z,1019.53
2017-05-22T01:18:13.739Z,1019.54
2017-05-22T01:19:13.760Z,1019.55
2017-05-22T01:20:13.783Z,1019.55
2017-05-22T01:21:13.808Z,1019.55
2017-05-22T01:22:13.828Z,1019.57
2017-05-22T01:23:13.854Z,1019.55
2017-05-22T01:24:13.878Z,1019.55
2017-05-22T01:25:13.900Z,1019.56
2017-05-22T01:27:13.947Z,1019.57
2017-05-22T01:28:13.968Z,1019.58
2017-05-22T01:29:13.990Z,1019.58
2017-05-22T01:30:14.013Z,1019.58
2017-05-22T01:31:14.039Z,1019.6
2017-05-22T01:32:14.059Z,1019.59
2017-05-22T01:33:14.086Z,1019.59
2017-05-22T01:34:14.109Z,1019.58
2017-05-22T01:35:14.133Z,1019.57
2017-05-22T01:36:14.154Z,1019.55
2017-05-22T01:37:14.177Z,1019.59
2017-05-22T01:38:14.201Z,1019.55
2017-05-22T01:39:14.224Z,1019.55
2017-05-22T01:40:14.244Z,1019.57
2017-05-22T01:42:14.290Z,1019.55
2017-05-22T01:43:14.316Z,1019.55
2017-05-22T01:44:14.340Z,1019.51
2017-05-22T01:45:14.363Z,1019.51
2017-05-22T01:46:14.385Z,1019.53
2017-05-22T01:47:14.408Z,1019.51
2017-05-22T01:48:14.428Z,1019.49
2017-05-22T01:49:14.451Z,1019.47
2017-05-22T01:50:14.477Z,1019.5
2017-05-22T01:51:14.500Z,1019.46
2017-05-22T01:52:14.523Z,1019.46
2017-05-22T01:53:14.546Z,1019.47
2017-05-22T01:54:14.565Z,1019.43
2017-05-22T01:55:14.592Z,1019.45
2017-05-22T01:56:14.615Z,1019.44
2017-05-22T01:57:14.639Z,1019.44
2017-05-22T01:58:14.661Z,1019.44
2017-05-22T01:59:14.681Z,1019.43
2017-05-22T02:00:14.704Z,1019.46
2017-05-22T02:01:14.726Z,1019.43
2017-05-22T02:02:14.752Z,1019.44
2017-05-22T02:03:14.776Z,1019.45
2017-05-22T02:04:14.799Z,1019.4
2017-05-22T02:05:14.818Z,1019.4
2017-05-22T02:06:14.841Z,1019.38
2017-05-22T02:07:14.864Z,1019.41
2017-05-22T02:08:14.890Z,1019.37
2017-05-22T02:09:14.909Z,1019.41
2017-05-22T02:10:14.936Z,1019.4
2017-05-22T02:11:14.956Z,1019.4
2017-05-22T02:12:14.981Z,1019.41
2017-05-22T02:14:15.024Z,1019.4
2017-05-22T02:15:15.047Z,1019.42
2017-05-22T02:16:15.073Z,1019.35
2017-05-22T02:17:15.147Z,1019.38
2017-05-22T02:18:15.116Z,1019.39
2017-05-22T02:19:15.139Z,1019.35
2017-05-22T02:20:15.162Z,1019.29
2017-05-22T02:21:15.184Z,1019.3
2017-05-22T02:22:15.211Z,1019.31
2017-05-22T02:23:15.230Z,1019.33
2017-05-22T02:24:15.253Z,1019.33
2017-05-22T02:25:15.279Z,1019.32
2017-05-22T02:26:15.303Z,1019.33
2017-05-22T02:27:15.325Z,1019.32
2017-05-22T02:28:15.345Z,1019.29
2017-05-22T02:30:15.396Z,1019.29
2017-05-22T02:31:15.416Z,1019.25
2017-05-22T02:32:15.437Z,1019.27
2017-05-22T02:33:15.463Z,1019.28
2017-05-22T02:34:15.481Z,1019.28
2017-05-22T02:35:15.511Z,1019.24
2017-05-22T02:36:15.531Z,1019.25
2017-05-22T02:37:15.551Z,1019.25
2017-05-22T02:38:15.573Z,1019.24
2017-05-22T02:39:15.597Z,1019.22
2017-05-22T02:40:15.620Z,1019.23
2017-05-22T02:41:15.642Z,1019.22
2017-05-22T02:42:15.668Z,1019.24
2017-05-22T02:43:15.688Z,1019.22
2017-05-22T02:44:15.713Z,1019.21
2017-05-22T02:46:15.756Z,1019.2
2017-05-22T02:47:15.782Z,1019.24
2017-05-22T02:48:15.802Z,1019.24
2017-05-22T02:49:15.826Z,1019.22
2017-05-22T02:50:15.846Z,1019.21
2017-05-22T02:51:15.870Z,1019.23
2017-05-22T02:52:15.897Z,1019.24
2017-05-22T02:53:15.915Z,1019.24
2017-05-22T02:54:15.941Z,1019.28
2017-05-22T02:55:15.960Z,1019.24
2017-05-22T02:56:15.983Z,1019.25
2017-05-22T02:57:16.009Z,1019.3
2017-05-22T02:58:16.030Z,1019.27
2017-05-22T02:59:16.052Z,1019.26
2017-05-22T03:00:16.073Z,1019.21
2017-05-22T03:02:16.122Z,1019.2
2017-05-22T03:03:16.143Z,1019.2
2017-05-22T03:04:16.168Z,1019.21
2017-05-22T03:05:16.190Z,1019.18
2017-05-22T03:06:16.213Z,1019.16
2017-05-22T03:07:16.236Z,1019.18
2017-05-22T03:08:16.255Z,1019.16
2017-05-22T03:09:16.284Z,1019.14
2017-05-22T03:10:16.304Z,1019.17
2017-05-22T03:11:16.326Z,1019.19
2017-05-22T03:12:16.349Z,1019.2
2017-05-22T03:13:16.368Z,1019.18
2017-05-22T03:14:16.395Z,1019.16
2017-05-22T03:15:16.414Z,1019.16
2017-05-22T03:17:16.463Z,1019.15
2017-05-22T03:18:16.482Z,1019.18
2017-05-22T03:19:16.508Z,1019.16
2017-05-22T03:20:16.531Z,1019.16
2017-05-22T03:21:16.551Z,1019.18
2017-05-22T03:22:16.572Z,1019.2
2017-05-22T03:23:16.595Z,1019.16
2017-05-22T03:24:16.618Z,1019.2
2017-05-22T03:25:16.643Z,1019.13
2017-05-22T03:26:16.663Z,1019.16
2017-05-22T03:27:16.691Z,1019.17
2017-05-22T03:28:16.712Z,1019.15
2017-05-22T03:29:16.731Z,1019.17
2017-05-22T03:30:16.754Z,1019.17
2017-05-22T03:31:16.776Z,1019.2
2017-05-22T03:32:16.802Z,1019.22
2017-05-22T03:33:16.823Z,1019.22
2017-05-22T03:34:16.850Z,1019.21
2017-05-22T03:35:16.867Z,1019.19
2017-05-22T03:36:16.892Z,1019.21
2017-05-22T03:37:16.915Z,1019.22
2017-05-22T03:38:16.940Z,1019.15
2017-05-22T03:39:16.962Z,1019.2
2017-05-22T03:40:16.979Z,1019.19
2017-05-22T03:41:17.003Z,1019.17
2017-05-22T03:42:17.025Z,1019.19
2017-05-22T03:43:17.052Z,1019.22
2017-05-22T03:44:17.071Z,1019.21
2017-05-22T03:45:17.093Z,1019.24
2017-05-22T03:46:17.119Z,1019.23
2017-05-22T03:47:17.142Z,1019.25
2017-05-22T03:49:17.192Z,1019.22
2017-05-22T03:50:17.209Z,1019.23
2017-05-22T03:51:17.231Z,1019.24
2017-05-22T03:52:17.255Z,1019.24
2017-05-22T03:53:17.275Z,1019.24
2017-05-22T03:54:17.298Z,1019.23
2017-05-22T03:55:17.320Z,1019.26
2017-05-22T03:56:17.346Z,1019.26
2017-05-22T03:57:17.369Z,1019.3
2017-05-22T03:58:17.388Z,1019.32
2017-05-22T03:59:17.411Z,1019.29
2017-05-22T04:00:17.439Z,1019.29
2017-05-22T04:01:17.461Z,1019.32
2017-05-22T04:02:17.482Z,1019.32
2017-05-22T04:03:17.505Z,1019.34
2017-05-22T04:05:17.548Z,1019.37
2017-05-22T04:06:17.573Z,1019.35
2017-05-22T04:07:17.597Z,1019.3
2017-05-22T04:08:17.620Z,1019.33
2017-05-22T04:09:17.642Z,1019.32
2017-05-22T04:10:17.662Z,1019.31
2017-05-22T04:11:17.685Z,1019.32
2017-05-22T04:12:17.708Z,1019.36
2017-05-22T04:13:17.730Z,1019.34
2017-05-22T04:14:17.754Z,1019.35
2017-05-22T04:15:17.777Z,1019.33
2017-05-22T04:16:17.804Z,1019.37
2017-05-22T04:17:17.823Z,1019.34
2017-05-22T04:18:17.849Z,1019.33
2017-05-22T04:19:17.872Z,1019.34
2017-05-22T04:21:17.917Z,1019.33
2017-05-22T04:22:17.938Z,1019.33
2017-05-22T04:23:17.963Z,1019.34
2017-05-22T04:24:17.983Z,1019.36
2017-05-22T04:25:18.009Z,1019.37
2017-05-22T04:26:18.029Z,1019.36
2017-05-22T04:27:18.056Z,1019.37
2017-05-22T04:28:18.082Z,1019.34
2017-05-22T04:29:18.101Z,1019.35
2017-05-22T04:30:18.125Z,1019.35
2017-05-22T04:31:18.147Z,1019.36
2017-05-22T04:32:18.170Z,1019.37
2017-05-22T04:33:18.191Z,1019.37
2017-05-22T04:34:18.220Z,1019.36
2017-05-22T04:35:18.239Z,1019.34
2017-05-22T04:37:18.283Z,1019.4
2017-05-22T04:38:18.307Z,1019.35
2017-05-22T04:39:18.332Z,1019.41
2017-05-22T04:40:18.352Z,1019.43
2017-05-22T04:41:18.380Z,1019.43
2017-05-22T04:42:18.399Z,1019.37
2017-05-22T04:43:18.425Z,1019.41
2017-05-22T04:44:18.448Z,1019.36
2017-05-22T04:45:18.469Z,1019.38
2017-05-22T04:46:18.495Z,1019.43
2017-05-22T04:47:18.519Z,1019.41
2017-05-22T04:48:18.540Z,1019.41
2017-05-22T04:49:18.567Z,1019.39
2017-05-22T04:50:18.588Z,1019.41
2017-05-22T04:52:18.640Z,1019.38
2017-05-22T04:53:18.663Z,1019.36
2017-05-22T04:54:18.687Z,1019.34
2017-05-22T04:55:18.708Z,1019.37
2017-05-22T04:56:18.735Z,1019.33
2017-05-22T04:57:18.759Z,1019.39
2017-05-22T04:58:18.784Z,1019.41
2017-05-22T04:59:18.805Z,1019.41
2017-05-22T05:00:18.831Z,1019.4
2017-05-22T05:01:18.856Z,1019.38
2017-05-22T05:02:18.880Z,1019.41
2017-05-22T05:03:18.906Z,1019.46
2017-05-22T05:04:18.930Z,1019.46
2017-05-22T05:05:18.954Z,1019.45
2017-05-22T05:06:18.977Z,1019.46
2017-05-22T05:07:19.005Z,1019.45
2017-05-22T05:08:19.029Z,1019.41
2017-05-22T05:09:19.052Z,1019.37
2017-05-22T05:10:19.076Z,1019.44
2017-05-22T05:11:19.104Z,1019.51
2017-05-22T05:12:19.129Z,1019.48
2017-05-22T05:13:19.156Z,1019.44
2017-05-22T05:14:19.178Z,1019.55
2017-05-22T05:15:19.202Z,1019.6
2017-05-22T05:16:19.232Z,1019.73
2017-05-22T05:17:19.255Z,1019.72
2017-05-22T05:18:19.284Z,1019.85
2017-05-22T05:19:19.310Z,1019.79
2017-05-22T05:20:19.333Z,1019.88
2017-05-22T05:21:19.360Z,1019.92
2017-05-22T05:22:19.389Z,1019.91
2017-05-22T05:24:19.445Z,1019.91
2017-05-22T05:25:19.470Z,1019.86
2017-05-22T05:26:19.501Z,1019.94
2017-05-22T05:27:19.530Z,1020.02
2017-05-22T05:28:19.559Z,1019.98
2017-05-22T05:29:19.589Z,1019.92
2017-05-22T05:30:19.619Z,1019.95
2017-05-22T05:31:19.648Z,1020
2017-05-22T05:32:19.680Z,1020
2017-05-22T05:33:19.707Z,1019.98
2017-05-22T05:34:19.737Z,1020
2017-05-22T05:35:19.772Z,1019.99
2017-05-22T05:36:19.801Z,1020
2017-05-22T05:37:19.832Z,1020.01
2017-05-22T05:38:19.867Z,1019.99
2017-05-22T05:40:19.930Z,1019.99
2017-05-22T05:41:19.965Z,1019.99
2017-05-22T05:42:19.995Z,1020.01
2017-05-22T05:43:20.029Z,1019.99
2017-05-22T05:44:20.062Z,1020
2017-05-22T05:45:20.095Z,1020.03
2017-05-22T05:46:20.133Z,1020.02
2017-05-22T05:47:20.167Z,1020.07
2017-05-22T05:48:20.200Z,1020.06
2017-05-22T05:49:20.232Z,1020.04
2017-05-22T05:50:20.267Z,1020
2017-05-22T05:51:20.305Z,1020.01
2017-05-22T05:52:20.338Z,1020.03
2017-05-22T05:53:20.373Z,1019.99
2017-05-22T05:54:20.408Z,1020.01
2017-05-22T05:56:20.478Z,1019.99
2017-05-22T05:57:20.513Z,1019.99
2017-05-22T05:58:20.546Z,1019.95
2017-05-22T05:59:20.581Z,1019.92
2017-05-22T06:00:20.616Z,1019.86
2017-05-22T06:01:20.655Z,1019.77
2017-05-22T06:02:20.689Z,1019.79
2017-05-22T06:03:20.723Z,1019.87
2017-05-22T06:04:20.762Z,1019.89
2017-05-22T06:05:20.795Z,1019.99
2017-05-22T06:06:20.834Z,1020.07
2017-05-22T06:07:20.870Z,1020.04
2017-05-22T06:08:20.903Z,1020.1
2017-05-22T06:09:20.940Z,1020.22
2017-05-22T06:10:20.975Z,1020.28
2017-05-22T06:12:21.048Z,1020.32
2017-05-22T06:13:21.090Z,1020.36
2017-05-22T06:14:21.121Z,1020.38
2017-05-22T06:15:21.160Z,1020.31
2017-05-22T06:16:21.195Z,1020.2
2017-05-22T06:17:21.233Z,1020.2
2017-05-22T06:18:21.270Z,1020.01
2017-05-22T06:19:21.304Z,1020.19
2017-05-22T06:20:21.344Z,1020.3
2017-05-22T06:21:21.376Z,1020.32
2017-05-22T06:22:21.413Z,1020.14
2017-05-22T06:23:21.450Z,1020.03
2017-05-22T06:24:21.490Z,1019.88
2017-05-22T06:25:21.526Z,1019.9
2017-05-22T06:27:21.602Z,1020.05
2017-05-22T06:28:21.632Z,1020.12
2017-05-22T06:29:21.669Z,1020.17
2017-05-22T06:30:21.708Z,1020.28
2017-05-22T06:31:21.742Z,1020.38
2017-05-22T06:32:21.781Z,1020.35
2017-05-22T06:33:21.817Z,1020.31
2017-05-22T06:34:21.854Z,1020.21
2017-05-22T06:35:21.889Z,1019.95
2017-05-22T06:36:21.923Z,1019.9
2017-05-22T06:37:21.959Z,1019.7
2017-05-22T06:38:21.999Z,1019.65
2017-05-22T06:39:22.031Z,1019.77
2017-05-22T06:40:22.071Z,1019.92
2017-05-22T06:41:22.104Z,1019.97
2017-05-22T06:42:22.140Z,1020.2
2017-05-22T06:43:22.178Z,1020.24
2017-05-22T06:44:22.211Z,1020.3
2017-05-22T06:45:22.247Z,1020.4
2017-05-22T06:46:22.286Z,1020.54
2017-05-22T06:47:22.318Z,1020.56
2017-05-22T06:48:22.354Z,1020.62
2017-05-22T06:49:22.393Z,1020.71
2017-05-22T06:50:22.425Z,1020.72
2017-05-22T06:51:22.462Z,1020.78
2017-05-22T06:52:22.501Z,1020.77
2017-05-22T06:53:22.537Z,1020.78
2017-05-22T06:54:22.569Z,1020.8
2017-05-22T06:55:22.609Z,1020.89
2017-05-22T06:56:22.646Z,1020.91
2017-05-22T06:57:22.678Z,1020.98
2017-05-22T06:59:22.756Z,1021.01
2017-05-22T07:00:22.790Z,1021.03
2017-05-22T07:01:22.825Z,1021.08
2017-05-22T07:02:22.865Z,1021.1
2017-05-22T07:03:22.902Z,1021.06
2017-05-22T07:04:22.940Z,1021.11
2017-05-22T07:05:22.976Z,1021.19
2017-05-22T07:06:23.013Z,1021.17
2017-05-22T07:07:23.047Z,1021.17
2017-05-22T07:08:23.083Z,1021.13
2017-05-22T07:09:23.121Z,1021.1
2017-05-22T07:10:23.158Z,1021.19
2017-05-22T07:11:23.195Z,1021.27
2017-05-22T07:12:23.232Z,1021.23
2017-05-22T07:13:23.273Z,1021.14
2017-05-22T07:15:23.347Z,1021.11
2017-05-22T07:16:23.381Z,1021.17
2017-05-22T07:17:23.418Z,1021.19
2017-05-22T07:18:23.457Z,1021.17
2017-05-22T07:19:23.493Z,1021.04
2017-05-22T07:20:23.534Z,1021.04
2017-05-22T07:21:23.569Z,1020.95
2017-05-22T07:22:23.610Z,1020.82
2017-05-22T07:23:23.643Z,1020.91
2017-05-22T07:24:23.685Z,1020.87
2017-05-22T07:25:23.718Z,1020.78
2017-05-22T07:26:23.756Z,1020.7
2017-05-22T07:27:23.797Z,1020.64
2017-05-22T07:28:23.833Z,1020.55
2017-05-22T07:29:23.869Z,1020.42
2017-05-22T07:31:23.946Z,1020.28
2017-05-22T07:32:23.983Z,1020.26
2017-05-22T07:33:24.025Z,1020.27
2017-05-22T07:34:24.059Z,1020.21
2017-05-22T07:35:24.096Z,1020.17
2017-05-22T07:36:24.129Z,1020.14
2017-05-22T07:37:24.168Z,1020.07
2017-05-22T07:38:24.207Z,1020.01
2017-05-22T07:39:24.241Z,1019.96
2017-05-22T07:40:24.279Z,1019.78
2017-05-22T07:41:24.315Z,1019.61
2017-05-22T07:42:24.356Z,1019.62
2017-05-22T07:43:24.391Z,1019.58
2017-05-22T07:44:24.480Z,1019.55
2017-05-22T07:45:24.465Z,1019.56
2017-05-22T07:47:24.542Z,1019.5
2017-05-22T07:48:24.576Z,1019.53
2017-05-22T07:49:24.617Z,1019.46
2017-05-22T07:50:24.653Z,1019.52
2017-05-22T07:51:24.691Z,1019.53
2017-05-22T07:52:24.724Z,1019.5
2017-05-22T07:53:24.764Z,1019.48
2017-05-22T07:54:24.799Z,1019.47
2017-05-22T07:55:24.840Z,1019.42
2017-05-22T07:56:24.875Z,1019.41
2017-05-22T07:57:24.909Z,1019.4
2017-05-22T07:58:24.947Z,1019.39
2017-05-22T07:59:24.987Z,1019.39
2017-05-22T08:00:25.023Z,1019.38
2017-05-22T08:02:25.098Z,1019.27
2017-05-22T08:03:25.131Z,1019.3
2017-05-22T08:04:25.168Z,1019.38
2017-05-22T08:05:25.209Z,1019.46
2017-05-22T08:06:25.246Z,1019.41
2017-05-22T08:07:25.282Z,1019.41
2017-05-22T08:08:25.358Z,1019.35
2017-05-22T08:09:25.354Z,1019.36
2017-05-22T08:10:25.389Z,1019.32
2017-05-22T08:11:25.435Z,1019.34
2017-05-22T08:12:25.464Z,1019.32
2017-05-22T08:13:25.501Z,1019.33
2017-05-22T08:14:25.540Z,1019.3
2017-05-22T08:15:25.575Z,1019.29
2017-05-22T08:16:25.615Z,1019.32
2017-05-22T08:17:25.649Z,1019.26
2017-05-22T08:18:25.691Z,1019.31
2017-05-22T08:19:25.770Z,1019.28
2017-05-22T08:20:25.762Z,1019.27
2017-05-22T08:21:25.795Z,1019.21
2017-05-22T08:22:25.835Z,1019.21
2017-05-22T08:23:25.869Z,1019.14
2017-05-22T08:24:25.909Z,1019.2
2017-05-22T08:25:25.945Z,1019.23
2017-05-22T08:26:25.980Z,1019.23
2017-05-22T08:27:26.016Z,1019.31
2017-05-22T08:28:26.056Z,1019.32
2017-05-22T08:29:26.092Z,1019.33
2017-05-22T08:30:26.430Z,1019.35
2017-05-22T08:31:26.167Z,1019.34
2017-05-22T08:32:26.205Z,1019.31
2017-05-22T08:34:26.276Z,1019.22
2017-05-22T08:35:26.612Z,1019.2
2017-05-22T08:36:26.346Z,1019.18
2017-05-22T08:37:26.382Z,1019.14
2017-05-22T08:38:26.422Z,1019.13
2017-05-22T08:39:26.459Z,1019.09
2017-05-22T08:40:26.497Z,1019.03
2017-05-22T08:41:26.527Z,1019.05
2017-05-22T08:42:26.565Z,1019.06
2017-05-22T08:43:26.604Z,1019.02
2017-05-22T08:44:26.637Z,1018.96
2017-05-22T08:45:26.673Z,1018.93
2017-05-22T08:46:26.710Z,1018.81
2017-05-22T08:47:26.749Z,1018.74
2017-05-22T08:48:26.782Z,1018.72
2017-05-22T08:50:26.859Z,1018.74
2017-05-22T08:51:26.891Z,1018.65
2017-05-22T08:52:26.927Z,1018.67
2017-05-22T08:53:26.964Z,1018.67
2017-05-22T08:54:27.003Z,1018.67
2017-05-22T08:55:27.039Z,1018.64
2017-05-22T08:56:27.074Z,1018.63
2017-05-22T08:57:27.113Z,1018.6
2017-05-22T08:58:27.145Z,1018.59
2017-05-22T08:59:27.185Z,1018.57
2017-05-22T09:00:27.221Z,1018.58
2017-05-22T09:01:27.255Z,1018.64
2017-05-22T09:02:27.290Z,1018.63
2017-05-22T09:03:27.327Z,1018.6
2017-05-22T09:04:27.363Z,1018.6
2017-05-22T09:06:27.438Z,1018.6
2017-05-22T09:07:27.471Z,1018.53
2017-05-22T09:08:27.507Z,1018.49
2017-05-22T09:09:27.546Z,1018.47
2017-05-22T09:10:27.578Z,1018.47
2017-05-22T09:11:27.617Z,1018.47
2017-05-22T09:12:27.650Z,1018.51
2017-05-22T09:13:27.684Z,1018.5
2017-05-22T09:14:27.720Z,1018.46
2017-05-22T09:15:27.759Z,1018.33
2017-05-22T09:16:27.794Z,1018.35
2017-05-22T09:17:27.826Z,1018.38
2017-05-22T09:18:27.862Z,1018.4
2017-05-22T09:19:27.900Z,1018.34
2017-05-22T09:20:27.931Z,1018.36
2017-05-22T09:22:28.001Z,1018.36
2017-05-22T09:23:28.036Z,1018.4
2017-05-22T09:24:28.069Z,1018.39
2017-05-22T09:25:28.107Z,1018.37
2017-05-22T09:26:28.141Z,1018.37
2017-05-22T09:27:28.175Z,1018.37
2017-05-22T09:28:28.209Z,1018.36
2017-05-22T09:29:28.240Z,1018.39
2017-05-22T09:30:28.274Z,1018.34
2017-05-22T09:31:28.307Z,1018.35
2017-05-22T09:32:28.342Z,1018.31
2017-05-22T09:33:28.379Z,1018.34
2017-05-22T09:34:28.410Z,1018.36
2017-05-22T09:35:28.445Z,1018.31
2017-05-22T09:37:28.516Z,1018.25
2017-05-22T09:38:28.546Z,1018.25
2017-05-22T09:39:28.583Z,1018.22
2017-05-22T09:40:28.618Z,1018.2
2017-05-22T09:41:28.653Z,1018.26
2017-05-22T09:42:28.682Z,1018.2
2017-05-22T09:43:28.719Z,1018.15
2017-05-22T09:44:28.754Z,1018.07
2017-05-22T09:45:28.783Z,1018.06
2017-05-22T09:46:28.819Z,1018.07
2017-05-22T09:47:28.854Z,1018.13
2017-05-22T09:48:28.885Z,1018.1
2017-05-22T09:49:28.920Z,1018.08
2017-05-22T09:50:28.953Z,1018.04
2017-05-22T09:51:28.985Z,1018.04
2017-05-22T09:52:29.017Z,1017.99
2017-05-22T09:53:29.050Z,1018.03
2017-05-22T09:54:29.083Z,1018.01
2017-05-22T09:55:29.115Z,1017.99
2017-05-22T09:56:29.147Z,1017.99
2017-05-22T09:57:29.180Z,1018
2017-05-22T09:58:29.209Z,1017.95
2017-05-22T09:59:29.245Z,1017.95
2017-05-22T10:00:29.273Z,1017.9
2017-05-22T10:01:29.306Z,1017.89
2017-05-22T10:02:29.338Z,1017.92
2017-05-22T10:03:29.374Z,1017.91
2017-05-22T10:04:29.407Z,1017.91
2017-05-22T10:05:29.440Z,1017.91
2017-05-22T10:06:29.473Z,1017.89
2017-05-22T10:07:29.504Z,1017.85
2017-05-22T10:09:29.572Z,1017.85
2017-05-22T10:10:29.604Z,1017.85
2017-05-22T10:11:29.633Z,1017.82
2017-05-22T10:12:29.667Z,1017.84
2017-05-22T10:13:29.699Z,1017.81
2017-05-22T10:14:29.733Z,1017.83
2017-05-22T10:15:29.765Z,1017.81
2017-05-22T10:16:29.802Z,1017.83
2017-05-22T10:17:29.836Z,1017.83
2017-05-22T10:18:29.870Z,1017.83
2017-05-22T10:19:29.902Z,1017.82
2017-05-22T10:20:29.933Z,1017.79
2017-05-22T10:21:29.966Z,1017.8
2017-05-22T10:22:29.999Z,1017.82
2017-05-22T10:23:30.036Z,1017.82
2017-05-22T10:25:30.104Z,1017.79
2017-05-22T10:26:30.134Z,1017.79
2017-05-22T10:27:30.170Z,1017.78
2017-05-22T10:28:30.204Z,1017.81
2017-05-22T10:29:30.234Z,1017.8
2017-05-22T10:30:30.268Z,1017.82
2017-05-22T10:31:30.303Z,1017.79
2017-05-22T10:32:30.340Z,1017.82
2017-05-22T10:33:30.373Z,1017.79
2017-05-22T10:34:30.404Z,1017.8
2017-05-22T10:35:30.441Z,1017.77
2017-05-22T10:36:30.471Z,1017.76
2017-05-22T10:37:30.508Z,1017.7
2017-05-22T10:38:30.537Z,1017.7
2017-05-22T10:39:30.575Z,1017.72
2017-05-22T10:41:30.640Z,1017.67
2017-05-22T10:42:30.674Z,1017.69
2017-05-22T10:43:30.703Z,1017.7
2017-05-22T10:44:30.738Z,1017.67
2017-05-22T10:45:30.771Z,1017.71
2017-05-22T10:46:30.802Z,1017.67
2017-05-22T10:47:30.835Z,1017.7
2017-05-22T10:48:30.866Z,1017.69
2017-05-22T10:49:30.902Z,1017.67
2017-05-22T10:50:30.935Z,1017.65
2017-05-22T10:51:30.963Z,1017.63
2017-05-22T10:52:30.996Z,1017.67
2017-05-22T10:53:31.029Z,1017.63
2017-05-22T10:54:31.061Z,1017.61
2017-05-22T10:55:31.092Z,1017.57
2017-05-22T10:57:31.163Z,1017.56
2017-05-22T10:58:31.193Z,1017.51
2017-05-22T10:59:31.221Z,1017.5
2017-05-22T11:00:31.257Z,1017.49
2017-05-22T11:01:31.289Z,1017.44
2017-05-22T11:02:31.317Z,1017.41
2017-05-22T11:03:31.351Z,1017.42
2017-05-22T11:04:31.380Z,1017.42
2017-05-22T11:05:31.415Z,1017.39
2017-05-22T11:06:31.446Z,1017.43
2017-05-22T11:07:31.475Z,1017.34
2017-05-22T11:08:31.508Z,1017.37
2017-05-22T11:09:31.539Z,1017.36
2017-05-22T11:10:31.635Z,1017.33
2017-05-22T11:12:31.636Z,1017.36
2017-05-22T11:13:31.670Z,1017.35
2017-05-22T11:14:31.699Z,1017.34
2017-05-22T11:15:31.733Z,1017.33
2017-05-22T11:16:31.766Z,1017.26
2017-05-22T11:17:31.794Z,1017.24
2017-05-22T11:18:31.828Z,1017.22
2017-05-22T11:19:31.859Z,1017.18
2017-05-22T11:20:31.888Z,1017.19
2017-05-22T11:21:31.923Z,1017.14
2017-05-22T11:22:31.955Z,1017.1
2017-05-22T11:23:31.987Z,1017.15
2017-05-22T11:24:32.014Z,1017.13
2017-05-22T11:25:32.048Z,1017.14
2017-05-22T11:26:32.082Z,1017.11
2017-05-22T11:27:32.113Z,1017.12
2017-05-22T11:28:32.142Z,1017.11
2017-05-22T11:29:32.178Z,1017.1
2017-05-22T11:30:32.208Z,1017.11
2017-05-22T11:31:32.235Z,1017.05
2017-05-22T11:32:32.267Z,1017.07
2017-05-22T11:33:32.299Z,1017.04
2017-05-22T11:34:32.332Z,1017.04
2017-05-22T11:35:32.365Z,1017.08
2017-05-22T11:36:32.394Z,1017
2017-05-22T11:37:32.429Z,1017
2017-05-22T11:38:32.461Z,1017.02
2017-05-22T11:39:32.495Z,1017
2017-05-22T11:40:32.521Z,1016.97
2017-05-22T11:41:32.551Z,1016.96
2017-05-22T11:42:32.586Z,1016.95
2017-05-22T11:44:32.649Z,1016.93
2017-05-22T11:45:32.677Z,1016.94
2017-05-22T11:46:32.708Z,1016.93
2017-05-22T11:47:32.740Z,1016.93
2017-05-22T11:48:32.775Z,1016.9
2017-05-22T11:49:32.803Z,1016.94
2017-05-22T11:50:32.833Z,1016.93
2017-05-22T11:51:32.924Z,1016.98
2017-05-22T11:52:32.908Z,1017
2017-05-22T11:53:32.927Z,1016.94
2017-05-22T11:54:32.959Z,1016.91
2017-05-22T11:55:32.990Z,1016.86
2017-05-22T11:56:33.022Z,1016.91
2017-05-22T11:57:33.055Z,1016.88
2017-05-22T11:58:33.084Z,1016.94
2017-05-22T12:00:33.146Z,1016.98
2017-05-22T12:01:33.177Z,1016.95
2017-05-22T12:02:33.210Z,1016.93
2017-05-22T12:03:33.239Z,1016.95
2017-05-22T12:04:33.273Z,1016.87
2017-05-22T12:05:33.304Z,1016.85
2017-05-22T12:06:33.335Z,1016.84
2017-05-22T12:07:33.366Z,1016.84
2017-05-22T12:08:33.393Z,1016.83
2017-05-22T12:09:33.424Z,1016.78
2017-05-22T12:10:33.516Z,1016.83
2017-05-22T12:11:33.486Z,1016.79
2017-05-22T12:12:33.520Z,1016.85
2017-05-22T12:13:33.551Z,1016.8
2017-05-22T12:14:33.579Z,1016.81
2017-05-22T12:16:33.644Z,1016.76
2017-05-22T12:17:33.675Z,1016.8
2017-05-22T12:18:33.705Z,1016.78
2017-05-22T12:19:33.734Z,1016.74
2017-05-22T12:20:33.762Z,1016.69
2017-05-22T12:21:33.798Z,1016.66
2017-05-22T12:22:33.825Z,1016.71
2017-05-22T12:23:33.854Z,1016.72
2017-05-22T12:24:33.888Z,1016.7
2017-05-22T12:25:33.918Z,1016.68
2017-05-22T12:26:33.948Z,1016.67
2017-05-22T12:27:33.975Z,1016.63
2017-05-22T12:28:34.009Z,1016.65
2017-05-22T12:29:34.035Z,1016.6
2017-05-22T12:30:34.064Z,1016.58
2017-05-22T12:32:34.124Z,1016.52
2017-05-22T12:33:34.154Z,1016.51
2017-05-22T12:34:34.183Z,1016.52
2017-05-22T12:35:34.216Z,1016.51
2017-05-22T12:36:34.244Z,1016.5
2017-05-22T12:37:34.273Z,1016.47
2017-05-22T12:38:34.302Z,1016.47
2017-05-22T12:39:34.332Z,1016.44
2017-05-22T12:40:34.365Z,1016.46
2017-05-22T12:41:34.394Z,1016.4
2017-05-22T12:42:34.424Z,1016.42
2017-05-22T12:43:34.450Z,1016.41
2017-05-22T12:44:34.483Z,1016.41
2017-05-22T12:45:34.511Z,1016.38
2017-05-22T12:47:34.569Z,1016.38
2017-05-22T12:48:34.601Z,1016.37
2017-05-22T12:49:34.628Z,1016.34
2017-05-22T12:50:34.658Z,1016.35